createdAt,value
2018-09-29T00:00:43.442Z,91.30
2018-09-29T00:03:12.684Z,91.50
2018-09-29T00:05:42.206Z,91.20
2018-09-29T07:21:30.891Z,81.20
2018-09-29T07:24:00.052Z,81.50
2018-09-29T07:26:29.292Z,80.90
2018-09-29T07:28:58.541Z,80.20
2018-09-29T07:31:28.066Z,79.80
2018-09-29T07:33:57.243Z,80.10
2018-09-29T07:36:26.763Z,79.80
2018-09-29T07:38:55.969Z,79.40
2018-09-29T07:41:26.544Z,79.70
2018-09-29T07:43:56.037Z,79.40
2018-09-29T07:46:25.242Z,79.50
2018-09-29T07:48:54.466Z,79.30
2018-09-29T07:51:23.692Z,79.30
2018-09-29T07:53:52.949Z,79.90
2018-09-29T07:56:22.189Z,78.70
2018-09-29T07:58:51.410Z,79.10
2018-09-29T08:01:20.572Z,78.50
2018-09-29T08:03:49.787Z,77.90
2018-09-29T08:06:18.991Z,77.80
2018-09-29T08:08:48.160Z,76.50
2018-09-29T08:11:17.470Z,76.90
2018-09-29T08:13:46.702Z,76.60
2018-09-29T08:16:15.880Z,75.60
2018-09-29T08:18:45.182Z,75.40
2018-09-29T08:21:14.462Z,74.70
2018-09-29T08:23:43.636Z,74.60
2018-09-29T08:26:12.831Z,74.60
2018-09-29T08:28:42.203Z,74.50
2018-09-29T08:31:11.382Z,73.90
2018-09-29T08:33:40.651Z,74.10
2018-09-29T08:36:09.829Z,73.70
2018-09-29T08:38:39.015Z,74.00
2018-09-29T08:41:08.273Z,73.20
2018-09-29T08:43:37.543Z,73.10
2018-09-29T08:46:06.951Z,72.90
2018-09-29T08:48:36.088Z,72.70
2018-09-29T08:51:05.448Z,72.20
2018-09-29T08:53:34.714Z,71.90
2018-09-29T08:56:03.972Z,71.40
2018-09-29T08:58:33.205Z,70.60
2018-09-29T09:01:02.408Z,70.80
2018-09-29T09:03:31.900Z,70.50
2018-09-29T09:06:01.040Z,70.10
2018-09-29T09:08:30.282Z,70.20
2018-09-29T09:11:00.245Z,70.90
2018-09-29T09:13:30.717Z,70.30
2018-09-29T09:16:00.155Z,70.20
2018-09-29T09:18:29.345Z,70.20
2018-09-29T09:20:58.666Z,70.10
2018-09-29T09:23:28.059Z,70.00
2018-09-29T09:25:57.166Z,68.80
2018-09-29T09:28:26.378Z,68.30
2018-09-29T09:30:55.599Z,68.30
2018-09-29T09:33:25.587Z,68.50
2018-09-29T09:35:54.899Z,68.50
2018-09-29T09:38:24.119Z,68.70
2018-09-29T09:40:53.324Z,68.00
2018-09-29T09:43:22.732Z,68.10
2018-09-29T09:45:52.032Z,68.40
2018-09-29T09:48:21.391Z,68.30
2018-09-29T09:50:50.797Z,66.80
2018-09-29T09:53:20.060Z,66.90
2018-09-29T09:55:50.165Z,66.30
2018-09-29T09:58:19.374Z,66.10
2018-09-29T10:00:53.749Z,65.00
2018-09-29T10:03:28.087Z,65.30
2018-09-29T10:05:57.501Z,65.40
2018-09-29T10:08:26.894Z,66.40
2018-09-29T10:10:56.127Z,67.60
2018-09-29T10:13:25.523Z,66.90
2018-09-29T10:15:54.725Z,67.60
2018-09-29T10:18:24.001Z,68.10
2018-09-29T10:20:53.323Z,67.90
2018-09-29T10:23:22.609Z,68.20
2018-09-29T10:25:52.300Z,68.30
2018-09-29T10:28:21.547Z,68.50
2018-09-29T10:30:50.829Z,68.90
2018-09-29T10:33:19.998Z,69.40
2018-09-29T10:35:49.289Z,68.80
2018-09-29T10:38:18.600Z,69.10
2018-09-29T10:40:47.797Z,69.20
2018-09-29T10:43:17.037Z,69.30
2018-09-29T10:45:46.241Z,69.50
2018-09-29T10:48:15.492Z,69.50
2018-09-29T10:50:44.897Z,69.80
2018-09-29T10:53:14.062Z,69.90
2018-09-29T10:55:43.224Z,69.70
2018-09-29T10:58:12.396Z,70.40
2018-09-29T11:00:41.581Z,70.20
2018-09-29T11:03:10.865Z,70.20
2018-09-29T11:05:40.101Z,70.60
2018-09-29T11:08:09.773Z,70.00
2018-09-29T11:10:38.931Z,69.80
2018-09-29T11:13:08.228Z,69.20
2018-09-29T11:15:37.564Z,69.50
2018-09-29T11:18:06.980Z,69.00
2018-09-29T11:20:36.147Z,69.30
2018-09-29T11:23:05.305Z,68.90
2018-09-29T11:25:34.545Z,69.00
2018-09-29T11:28:03.828Z,68.60
2018-09-29T11:30:33.284Z,68.40
2018-09-29T11:33:02.593Z,68.50
2018-09-29T11:35:31.942Z,68.80
2018-09-29T11:38:01.132Z,68.20
2018-09-29T11:40:30.516Z,68.40
2018-09-29T11:42:59.773Z,68.90
2018-09-29T11:45:28.920Z,68.30
2018-09-29T11:47:58.376Z,67.60
2018-09-29T11:50:27.763Z,67.90
2018-09-29T11:52:57.081Z,67.70
2018-09-29T11:55:26.488Z,67.30
2018-09-29T11:57:55.654Z,67.10
2018-09-29T12:00:24.866Z,66.80
2018-09-29T12:02:54.796Z,66.80
2018-09-29T12:05:24.058Z,67.10
2018-09-29T12:07:53.318Z,66.50
2018-09-29T12:10:22.428Z,66.30
2018-09-29T12:12:51.644Z,65.70
2018-09-29T12:15:20.858Z,65.80
2018-09-29T12:17:50.074Z,65.60
2018-09-29T12:20:19.207Z,65.90
2018-09-29T12:22:48.357Z,65.50
2018-09-29T12:25:17.514Z,65.20
2018-09-29T12:27:46.870Z,65.10
2018-09-29T12:30:16.062Z,64.80
2018-09-29T12:32:45.249Z,64.80
2018-09-29T12:35:14.512Z,64.60
2018-09-29T12:37:43.718Z,64.50
2018-09-29T12:40:12.856Z,64.40
2018-09-29T12:42:42.059Z,64.40
2018-09-29T12:45:11.171Z,64.10
2018-09-29T12:47:40.373Z,64.00
2018-09-29T12:50:09.586Z,63.20
2018-09-29T12:52:39.263Z,63.70
2018-09-29T12:55:08.383Z,63.80
2018-09-29T12:57:37.812Z,64.00
2018-09-29T13:00:07.954Z,63.40
2018-09-29T13:02:37.191Z,63.40
2018-09-29T13:05:06.465Z,63.90
2018-09-29T13:07:35.546Z,63.90
2018-09-29T13:10:04.774Z,64.00
2018-09-29T13:12:34.036Z,63.90
2018-09-29T13:15:03.312Z,63.70
2018-09-29T13:17:32.565Z,63.20
2018-09-29T13:20:02.130Z,62.90
2018-09-29T13:22:31.394Z,62.90
2018-09-29T13:25:00.746Z,61.60
2018-09-29T13:27:29.937Z,62.10
2018-09-29T13:29:59.115Z,62.10
2018-09-29T13:32:28.557Z,62.40
2018-09-29T13:34:57.749Z,61.60
2018-09-29T13:37:26.966Z,61.10
2018-09-29T13:39:56.263Z,61.00
2018-09-29T13:42:25.411Z,60.90
2018-09-29T13:44:54.998Z,61.20
2018-09-29T13:47:24.152Z,61.50
2018-09-29T13:49:53.587Z,60.20
2018-09-29T13:52:22.809Z,60.80
2018-09-29T13:54:52.001Z,61.20
2018-09-29T13:57:21.275Z,61.80
2018-09-29T13:59:50.514Z,61.90
2018-09-29T14:02:19.769Z,61.90
2018-09-29T14:04:48.940Z,61.70
2018-09-29T14:07:18.108Z,61.70
2018-09-29T14:09:47.324Z,61.50
2018-09-29T14:12:16.766Z,61.50
2018-09-29T14:14:45.934Z,60.90
2018-09-29T14:17:15.215Z,61.10
2018-09-29T14:19:44.627Z,61.20
2018-09-29T14:22:13.756Z,61.10
2018-09-29T14:24:44.148Z,61.00
2018-09-29T14:27:13.475Z,60.80
2018-09-29T14:29:42.754Z,61.10
2018-09-29T14:32:12.015Z,61.40
2018-09-29T14:34:41.227Z,61.20
2018-09-29T14:37:10.369Z,61.60
2018-09-29T14:39:39.599Z,61.60
2018-09-29T14:42:08.894Z,61.10
2018-09-29T14:44:38.204Z,61.00
2018-09-29T14:47:07.502Z,61.10
2018-09-29T14:49:36.692Z,61.20
2018-09-29T14:52:06.004Z,60.90
2018-09-29T14:54:35.168Z,60.50
2018-09-29T14:57:04.397Z,60.40
2018-09-29T14:59:33.568Z,60.40
2018-09-29T15:02:02.759Z,60.60
2018-09-29T15:04:32.169Z,60.40
2018-09-29T15:07:01.373Z,60.40
2018-09-29T15:09:30.571Z,60.60
2018-09-29T15:11:59.815Z,60.30
2018-09-29T15:14:29.127Z,60.40
2018-09-29T15:16:58.336Z,60.80
2018-09-29T15:19:27.740Z,61.00
2018-09-29T15:21:56.962Z,60.10
2018-09-29T15:24:26.181Z,60.30
2018-09-29T15:26:55.489Z,60.10
2018-09-29T15:29:24.918Z,60.10
2018-09-29T15:34:39.986Z,60.30
2018-09-29T15:37:09.197Z,59.80
2018-09-29T15:39:38.372Z,59.60
2018-09-29T15:42:07.590Z,59.80
2018-09-29T15:44:36.908Z,59.60
2018-09-29T15:47:06.370Z,59.80
2018-09-29T15:49:35.566Z,59.80
2018-09-29T15:52:04.814Z,60.10
2018-09-29T15:54:33.987Z,60.10
2018-09-29T15:57:03.208Z,60.10
2018-09-29T15:59:32.426Z,60.20
2018-09-29T16:02:01.591Z,60.20
2018-09-29T16:04:30.775Z,60.40
2018-09-29T16:06:59.981Z,60.10
2018-09-29T16:09:29.182Z,60.50
2018-09-29T16:11:58.360Z,60.10
2018-09-29T16:14:27.497Z,59.80
2018-09-29T16:16:56.642Z,59.60
2018-09-29T16:19:25.818Z,59.80
2018-09-29T16:21:55.052Z,59.70
2018-09-29T16:24:24.241Z,60.10
2018-09-29T16:26:53.559Z,60.50
2018-09-29T16:29:22.822Z,60.60
2018-09-29T16:31:52.019Z,61.10
2018-09-29T16:34:21.114Z,61.00
2018-09-29T16:36:51.457Z,60.40
2018-09-29T16:39:20.610Z,61.20
2018-09-29T16:41:49.839Z,60.70
2018-09-29T16:44:19.009Z,60.70
2018-09-29T16:46:48.194Z,60.80
2018-09-29T16:49:17.411Z,61.10
2018-09-29T16:51:46.641Z,61.40
2018-09-29T16:54:15.844Z,61.80
2018-09-29T16:56:45.003Z,62.20
2018-09-29T16:59:14.236Z,62.50
2018-09-29T17:01:43.455Z,62.40
2018-09-29T17:04:12.676Z,62.70
2018-09-29T17:06:41.831Z,62.90
2018-09-29T17:09:12.595Z,63.30
2018-09-29T17:11:41.941Z,63.60
2018-09-29T17:14:11.354Z,63.50
2018-09-29T17:16:40.572Z,64.30
2018-09-29T17:19:09.787Z,64.50
2018-09-29T17:21:38.959Z,64.90
2018-09-29T17:24:08.169Z,64.90
2018-09-29T17:26:37.379Z,65.00
2018-09-29T17:29:06.725Z,65.30
2018-09-29T17:31:35.949Z,65.50
2018-09-29T17:34:05.245Z,65.70
2018-09-29T17:36:34.396Z,66.00
2018-09-29T17:39:04.738Z,66.30
2018-09-29T17:41:33.913Z,67.00
2018-09-29T17:44:03.129Z,67.70
2018-09-29T17:46:32.314Z,68.50
2018-09-29T17:49:02.348Z,69.00
2018-09-29T17:51:31.506Z,69.00
2018-09-29T17:54:00.654Z,69.20
2018-09-29T17:56:29.869Z,69.60
2018-09-29T17:58:59.420Z,69.50
2018-09-29T18:01:28.597Z,70.40
2018-09-29T18:03:58.223Z,70.70
2018-09-29T18:06:27.927Z,71.40
2018-09-29T18:08:57.181Z,72.20
2018-09-29T18:11:26.391Z,72.60
2018-09-29T18:13:55.762Z,73.10
2018-09-29T18:16:24.981Z,73.70
2018-09-29T18:18:54.146Z,73.60
2018-09-29T18:21:23.319Z,74.30
2018-09-29T18:26:27.916Z,74.50
2018-09-29T18:28:57.209Z,74.70
2018-09-29T18:31:26.424Z,74.70
2018-09-29T18:33:55.579Z,74.90
2018-09-29T18:36:24.739Z,74.90
2018-09-29T18:38:53.989Z,75.20
2018-09-29T18:41:23.198Z,75.10
2018-09-29T18:43:52.373Z,75.20
2018-09-29T18:46:21.570Z,75.60
2018-09-29T18:48:50.820Z,75.20
2018-09-29T18:51:20.262Z,75.20
2018-09-29T18:53:49.556Z,75.60
2018-09-29T18:56:19.379Z,76.00
2018-09-29T18:58:56.487Z,75.70
2018-09-29T19:01:25.967Z,76.20
2018-09-29T19:03:55.365Z,75.90
2018-09-29T19:06:24.541Z,76.20
2018-09-29T19:08:53.807Z,76.10
2018-09-29T19:11:23.165Z,76.30
2018-09-29T19:13:52.322Z,76.40
2018-09-29T19:16:21.512Z,77.00
2018-09-29T19:18:50.737Z,77.20
2018-09-29T19:21:19.892Z,77.90
2018-09-29T19:23:49.123Z,78.30
2018-09-29T19:26:18.276Z,78.70
2018-09-29T19:28:47.427Z,79.10
2018-09-29T19:31:16.608Z,79.80
2018-09-29T19:33:45.949Z,79.30
2018-09-29T19:36:15.162Z,78.90
2018-09-29T19:38:44.360Z,79.40
2018-09-29T19:41:13.572Z,79.40
2018-09-29T19:43:42.861Z,79.10
2018-09-29T19:46:12.068Z,79.70
2018-09-29T19:48:41.425Z,79.50
2018-09-29T19:51:10.753Z,79.40
2018-09-29T19:53:39.970Z,78.70
2018-09-29T19:56:09.191Z,79.50
2018-09-29T19:58:38.394Z,80.50
2018-09-29T20:01:07.699Z,80.50
2018-09-29T20:03:36.886Z,80.60
2018-09-29T20:06:06.050Z,80.80
2018-09-29T20:08:35.356Z,81.30
2018-09-29T20:11:04.691Z,80.50
2018-09-29T20:13:33.870Z,81.10
2018-09-29T20:16:03.098Z,80.70
2018-09-29T20:18:32.281Z,80.60
2018-09-29T20:21:01.524Z,81.10
2018-09-29T20:23:30.649Z,81.20
2018-09-29T20:25:59.881Z,81.90
2018-09-29T20:28:29.030Z,82.20
2018-09-29T20:30:58.388Z,81.80
2018-09-29T20:33:27.541Z,82.30
2018-09-29T20:35:56.752Z,82.50
2018-09-29T20:38:25.916Z,82.50
2018-09-29T20:40:55.162Z,82.80
2018-09-29T20:43:24.353Z,83.30
2018-09-29T20:45:53.501Z,84.40
2018-09-29T20:48:22.699Z,84.50
2018-09-29T20:50:51.881Z,84.90
2018-09-29T20:53:21.178Z,84.10
2018-09-29T20:55:50.386Z,84.60
2018-09-29T20:58:19.517Z,85.00
2018-09-29T21:00:49.067Z,85.20
2018-09-29T21:03:18.330Z,85.40
2018-09-29T21:05:47.577Z,85.90
2018-09-29T21:08:16.786Z,86.20
2018-09-29T21:10:46.035Z,86.30
2018-09-29T21:13:15.291Z,86.50
2018-09-29T21:15:44.393Z,87.50
2018-09-29T21:18:13.526Z,87.50
2018-09-29T21:20:42.705Z,87.60
2018-09-29T21:23:11.973Z,87.40
2018-09-29T21:25:41.259Z,87.60
2018-09-29T21:28:10.547Z,87.60
2018-09-29T21:30:39.733Z,87.90
2018-09-29T21:33:09.022Z,87.70
2018-09-29T21:35:38.264Z,87.40
2018-09-29T21:38:07.510Z,86.80
2018-09-29T21:40:36.722Z,86.40
2018-09-29T21:43:05.971Z,86.70
2018-09-29T21:45:35.184Z,86.80
2018-09-29T21:48:04.645Z,87.40
2018-09-29T21:50:34.029Z,88.40
2018-09-29T21:53:03.302Z,89.10
2018-09-29T21:55:32.718Z,89.80
2018-09-29T21:58:01.971Z,90.30
2018-09-29T22:00:37.576Z,90.50
2018-09-29T22:03:07.077Z,90.50
2018-09-29T22:05:36.465Z,90.50
2018-09-29T22:08:05.755Z,90.40
2018-09-29T22:10:35.222Z,90.20
2018-09-29T22:13:04.785Z,90.30
2018-09-29T22:15:34.010Z,90.60
2018-09-29T22:18:03.336Z,90.70
2018-09-29T22:20:32.507Z,90.80
2018-09-29T22:23:01.873Z,90.80
2018-09-29T22:25:31.165Z,90.50
2018-09-29T22:28:00.398Z,90.80
2018-09-29T22:30:29.634Z,91.10
2018-09-29T22:32:58.902Z,91.30
2018-09-29T22:35:28.147Z,91.00
2018-09-29T22:37:57.400Z,91.10
2018-09-29T22:40:26.610Z,90.90
2018-09-29T22:42:55.771Z,91.10
2018-09-29T22:45:24.990Z,90.90
2018-09-29T22:47:54.199Z,90.80
2018-09-29T22:50:23.485Z,90.90
2018-09-29T22:52:53.102Z,90.90
2018-09-29T22:55:22.337Z,90.80
2018-09-29T22:57:51.533Z,90.30
2018-09-29T23:00:20.701Z,90.10
2018-09-29T23:02:49.831Z,89.50
2018-09-29T23:05:19.103Z,89.30
2018-09-29T23:07:48.271Z,89.30
2018-09-29T23:10:17.494Z,89.20
2018-09-29T23:12:46.706Z,89.20
2018-09-29T23:15:15.882Z,90.00
2018-09-29T23:17:45.056Z,90.60
2018-09-29T23:20:14.276Z,91.00
2018-09-29T23:22:43.489Z,91.10
2018-09-29T23:25:12.887Z,90.80
2018-09-29T23:27:42.148Z,90.80
2018-09-29T23:30:11.354Z,91.30
2018-09-29T23:32:40.667Z,91.30
2018-09-29T23:35:09.926Z,90.90
2018-09-29T23:37:39.169Z,90.80
2018-09-29T23:40:08.449Z,90.40
2018-09-29T23:42:37.684Z,90.30
2018-09-29T23:45:07.071Z,90.40
2018-09-29T23:47:36.254Z,90.40
2018-09-29T23:50:06.009Z,90.10
2018-09-29T23:52:35.186Z,90.20
2018-09-29T23:55:04.482Z,90.10
2018-09-29T23:57:33.768Z,89.90
